Forside
METAR-TAF:

METAR-TAF

Lufthavne :

Army Air Corps Middle Wallop

Middle Wallop, England

Breddekreds: 51-09N, længdekreds: 001-34W, højde: 91 m

Aktuelle vejr

Denne rapport blev lavet for 1 time og 7 minutter siden, kl. 16:50 UTC
Vind 7 kt fra nordvest
Temperatur 10°C
Fugtighed 66%
Tryk 1021 hPa
Sigt 10 km eller mere

METAR: EGVP 231650Z AUTO 31007KT 9999 FEW048/// BKN170/// BKN210/// 10/04 Q1021

Tid: 17:57 (17:57 UTC)


TAF: fraværende

Vejrobservationer og prognoser fra mere end 4000 lufthavne (METAR og TAF).

De gule og røde prikker repræsenterer de meteorologiske stationer.

Flyt musen over at se navnet på stationen.

Så klik over at se vejr observationer og prognoser.

At skifte det kort: Klik på de grønne knapper med et sort kors for at zoome ind; på den grønne knap med en bindestreg for at zoome ud; eller på de grønne pile for tilstødende kort.


METAR-TAF: